sensor_id;sensor_type;location;lat;lon;timestamp;pressure;altitude;pressure_sealevel;temperature;humidity
40920;BME280;26652;50.280;19.026;2023-04-09T00:02:08;98928.25;;;7.55;98.58
40920;BME280;26652;50.280;19.026;2023-04-09T00:04:19;98918.41;;;7.52;98.45
40920;BME280;26652;50.280;19.026;2023-04-09T00:06:31;98939.38;;;7.63;98.04
40920;BME280;26652;50.280;19.026;2023-04-09T00:08:45;98938.22;;;7.57;97.23
40920;BME280;26652;50.280;19.026;2023-04-09T00:10:54;98936.19;;;7.61;96.67
40920;BME280;26652;50.280;19.026;2023-04-09T00:13:04;98934.31;;;7.63;96.03
40920;BME280;26652;50.280;19.026;2023-04-09T00:15:18;98940.03;;;7.65;95.70
40920;BME280;26652;50.280;19.026;2023-04-09T00:17:29;98934.97;;;7.65;95.80
40920;BME280;26652;50.280;19.026;2023-04-09T00:19:44;98944.38;;;7.72;96.37
40920;BME280;26652;50.280;19.026;2023-04-09T00:21:59;98933.28;;;7.73;96.43
40920;BME280;26652;50.280;19.026;2023-04-09T00:24:11;98947.06;;;7.71;96.37
40920;BME280;26652;50.280;19.026;2023-04-09T00:26:23;98943.38;;;7.65;96.35
40920;BME280;26652;50.280;19.026;2023-04-09T00:28:31;98936.34;;;7.59;95.94
40920;BME280;26652;50.280;19.026;2023-04-09T00:30:45;98937.44;;;7.57;95.51
40920;BME280;26652;50.280;19.026;2023-04-09T00:32:54;98942.94;;;7.52;95.35
40920;BME280;26652;50.280;19.026;2023-04-09T00:35:05;98913.63;;;7.32;95.25
40920;BME280;26652;50.280;19.026;2023-04-09T00:37:11;98940.84;;;7.47;95.34
40920;BME280;26652;50.280;19.026;2023-04-09T00:39:23;98940.03;;;7.47;95.20
40920;BME280;26652;50.280;19.026;2023-04-09T00:41:47;98943.88;;;7.51;95.44
40920;BME280;26652;50.280;19.026;2023-04-09T00:44:01;98952.91;;;7.53;95.66
40920;BME280;26652;50.280;19.026;2023-04-09T00:46:18;98953.28;;;7.59;96.57
40920;BME280;26652;50.280;19.026;2023-04-09T00:48:32;98954.22;;;7.58;96.52
40920;BME280;26652;50.280;19.026;2023-04-09T00:50:41;98952.78;;;7.55;95.64
40920;BME280;26652;50.280;19.026;2023-04-09T00:52:55;98956.91;;;7.56;95.29
40920;BME280;26652;50.280;19.026;2023-04-09T00:55:11;98952.56;;;7.48;96.68
40920;BME280;26652;50.280;19.026;2023-04-09T00:57:43;98955.53;;;7.44;97.42
40920;BME280;26652;50.280;19.026;2023-04-09T01:00:01;98958.19;;;7.42;98.04
40920;BME280;26652;50.280;19.026;2023-04-09T01:02:20;98958.06;;;7.44;97.41
40920;BME280;26652;50.280;19.026;2023-04-09T01:04:29;98952.06;;;7.45;97.14
40920;BME280;26652;50.280;19.026;2023-04-09T01:06:55;98946.47;;;7.41;97.31
40920;BME280;26652;50.280;19.026;2023-04-09T01:09:27;98959.22;;;7.49;96.96
40920;BME280;26652;50.280;19.026;2023-04-09T01:11:56;98950.25;;;7.37;97.84
40920;BME280;26652;50.280;19.026;2023-04-09T01:14:26;98948.56;;;7.28;99.67
40920;BME280;26652;50.280;19.026;2023-04-09T01:16:37;98940.03;;;7.29;100.00
40920;BME280;26652;50.280;19.026;2023-04-09T01:19:00;98948.13;;;7.33;98.83
40920;BME280;26652;50.280;19.026;2023-04-09T01:21:22;98938.28;;;7.30;99.11
40920;BME280;26652;50.280;19.026;2023-04-09T01:23:57;98945.56;;;7.25;99.43
40920;BME280;26652;50.280;19.026;2023-04-09T01:28:44;98947.56;;;7.21;99.97
40920;BME280;26652;50.280;19.026;2023-04-09T01:30:56;98942.94;;;7.16;99.41
40920;BME280;26652;50.280;19.026;2023-04-09T01:33:03;98949.75;;;7.16;99.35
40920;BME280;26652;50.280;19.026;2023-04-09T01:35:14;98938.69;;;7.17;98.95
40920;BME280;26652;50.280;19.026;2023-04-09T01:37:24;98949.31;;;7.20;98.02
40920;BME280;26652;50.280;19.026;2023-04-09T01:39:37;98944.38;;;7.19;97.30
40920;BME280;26652;50.280;19.026;2023-04-09T01:41:43;98950.38;;;7.18;97.13
40920;BME280;26652;50.280;19.026;2023-04-09T01:43:59;98945.84;;;7.21;96.79
40920;BME280;26652;50.280;19.026;2023-04-09T01:46:06;98950.16;;;7.29;96.32
40920;BME280;26652;50.280;19.026;2023-04-09T01:48:20;98947.47;;;7.31;96.36
40920;BME280;26652;50.280;19.026;2023-04-09T01:50:26;98958.34;;;7.23;98.43
40920;BME280;26652;50.280;19.026;2023-04-09T01:52:40;98960.38;;;7.19;100.00
40920;BME280;26652;50.280;19.026;2023-04-09T01:54:55;98961.41;;;7.27;100.00
40920;BME280;26652;50.280;19.026;2023-04-09T01:57:09;98946.41;;;7.15;100.00
40920;BME280;26652;50.280;19.026;2023-04-09T01:59:18;98961.47;;;7.17;100.00
40920;BME280;26652;50.280;19.026;2023-04-09T02:02:00;98946.94;;;6.92;100.00
40920;BME280;26652;50.280;19.026;2023-04-09T02:04:13;98952.06;;;6.82;100.00
40920;BME280;26652;50.280;19.026;2023-04-09T02:06:52;98949.72;;;6.98;100.00
40920;BME280;26652;50.280;19.026;2023-04-09T02:09:01;98961.09;;;7.12;100.00
40920;BME280;26652;50.280;19.026;2023-04-09T02:11:14;98949.59;;;7.17;99.31
40920;BME280;26652;50.280;19.026;2023-04-09T02:13:21;98955.03;;;7.22;98.68
40920;BME280;26652;50.280;19.026;2023-04-09T02:15:31;98952.62;;;7.21;98.52
40920;BME280;26652;50.280;19.026;2023-04-09T02:17:39;98949.37;;;7.11;98.46
40920;BME280;26652;50.280;19.026;2023-04-09T02:19:57;98948.31;;;6.86;99.01
40920;BME280;26652;50.280;19.026;2023-04-09T02:22:15;98946.12;;;6.64;100.00
40920;BME280;26652;50.280;19.026;2023-04-09T02:24:30;98952.66;;;6.66;100.00
40920;BME280;26652;50.280;19.026;2023-04-09T02:26:38;98942.97;;;6.52;100.00
40920;BME280;26652;50.280;19.026;2023-04-09T02:28:52;98946.78;;;6.66;100.00
40920;BME280;26652;50.280;19.026;2023-04-09T02:31:00;98951.06;;;6.65;100.00
40920;BME280;26652;50.280;19.026;2023-04-09T02:33:18;98953.75;;;6.54;100.00
40920;BME280;26652;50.280;19.026;2023-04-09T02:35:27;98956.72;;;6.77;100.00
40920;BME280;26652;50.280;19.026;2023-04-09T02:37:50;98950.00;;;6.95;100.00
40920;BME280;26652;50.280;19.026;2023-04-09T02:40:05;98955.94;;;7.04;100.00
40920;BME280;26652;50.280;19.026;2023-04-09T02:42:14;98953.75;;;6.91;100.00
40920;BME280;26652;50.280;19.026;2023-04-09T02:44:23;98953.09;;;6.89;100.00
40920;BME280;26652;50.280;19.026;2023-04-09T02:46:34;98964.09;;;6.70;100.00
40920;BME280;26652;50.280;19.026;2023-04-09T02:48:47;98950.34;;;6.73;100.00
40920;BME280;26652;50.280;19.026;2023-04-09T02:51:03;98944.69;;;6.61;100.00
40920;BME280;26652;50.280;19.026;2023-04-09T02:53:08;98955.13;;;6.76;100.00
40920;BME280;26652;50.280;19.026;2023-04-09T02:55:23;98951.88;;;6.93;100.00
40920;BME280;26652;50.280;19.026;2023-04-09T02:57:32;98954.91;;;6.97;100.00
40920;BME280;26652;50.280;19.026;2023-04-09T02:59:57;98964.03;;;7.07;100.00
40920;BME280;26652;50.280;19.026;2023-04-09T03:02:09;98952.13;;;7.17;100.00
40920;BME280;26652;50.280;19.026;2023-04-09T03:04:29;98953.06;;;7.16;100.00
40920;BME280;26652;50.280;19.026;2023-04-09T03:06:44;98939.84;;;7.22;100.00
40920;BME280;26652;50.280;19.026;2023-04-09T03:09:04;98953.00;;;7.26;100.00
40920;BME280;26652;50.280;19.026;2023-04-09T03:11:12;98953.19;;;7.33;100.00
40920;BME280;26652;50.280;19.026;2023-04-09T03:13:37;98947.34;;;7.32;100.00
40920;BME280;26652;50.280;19.026;2023-04-09T03:15:45;98949.69;;;7.26;100.00
40920;BME280;26652;50.280;19.026;2023-04-09T03:18:08;98950.97;;;7.30;100.00
40920;BME280;26652;50.280;19.026;2023-04-09T03:20:15;98949.81;;;7.24;100.00
40920;BME280;26652;50.280;19.026;2023-04-09T03:22:27;98957.63;;;7.31;100.00
40920;BME280;26652;50.280;19.026;2023-04-09T03:24:36;98948.87;;;7.25;99.68
40920;BME280;26652;50.280;19.026;2023-04-09T03:26:53;98949.97;;;7.22;99.62
40920;BME280;26652;50.280;19.026;2023-04-09T03:29:07;98950.38;;;7.18;100.00
40920;BME280;26652;50.280;19.026;2023-04-09T03:31:31;98949.87;;;7.14;100.00
40920;BME280;26652;50.280;19.026;2023-04-09T03:33:46;98949.75;;;7.16;100.00
40920;BME280;26652;50.280;19.026;2023-04-09T03:36:00;98954.16;;;7.14;100.00
40920;BME280;26652;50.280;19.026;2023-04-09T03:38:08;98947.34;;;7.14;100.00
40920;BME280;26652;50.280;19.026;2023-04-09T03:40:29;98960.66;;;7.16;100.00
40920;BME280;26652;50.280;19.026;2023-04-09T03:42:40;98953.88;;;7.17;100.00
40920;BME280;26652;50.280;19.026;2023-04-09T03:44:53;98945.84;;;7.21;100.00
40920;BME280;26652;50.280;19.026;2023-04-09T03:47:02;98943.81;;;7.25;100.00
40920;BME280;26652;50.280;19.026;2023-04-09T03:49:19;98946.78;;;7.20;100.00
40920;BME280;26652;50.280;19.026;2023-04-09T03:51:45;98940.25;;;7.00;100.00
40920;BME280;26652;50.280;19.026;2023-04-09T03:54:03;98953.78;;;7.09;100.00
40920;BME280;26652;50.280;19.026;2023-04-09T03:56:11;98953.78;;;7.09;100.00
40920;BME280;26652;50.280;19.026;2023-04-09T03:58:25;98954.75;;;6.98;100.00
40920;BME280;26652;50.280;19.026;2023-04-09T04:00:33;98953.78;;;7.09;100.00
40920;BME280;26652;50.280;19.026;2023-04-09T04:02:51;98940.53;;;6.97;100.00
40920;BME280;26652;50.280;19.026;2023-04-09T04:05:05;98952.09;;;7.00;100.00
40920;BME280;26652;50.280;19.026;2023-04-09T04:07:15;98951.06;;;6.93;100.00
40920;BME280;26652;50.280;19.026;2023-04-09T04:09:23;98950.00;;;6.95;100.00
40920;BME280;26652;50.280;19.026;2023-04-09T04:11:47;98962.88;;;7.02;100.00
40920;BME280;26652;50.280;19.026;2023-04-09T04:13:56;98964.94;;;7.16;100.00
40920;BME280;26652;50.280;19.026;2023-04-09T04:16:14;98964.78;;;7.17;100.00
40920;BME280;26652;50.280;19.026;2023-04-09T04:18:23;98970.13;;;7.14;100.00
40920;BME280;26652;50.280;19.026;2023-04-09T04:20:37;98963.00;;;7.28;100.00
40920;BME280;26652;50.280;19.026;2023-04-09T04:22:43;98963.03;;;7.36;100.00
40920;BME280;26652;50.280;19.026;2023-04-09T04:24:58;98966.75;;;7.24;100.00
40920;BME280;26652;50.280;19.026;2023-04-09T04:27:06;98959.72;;;7.35;100.00
40920;BME280;26652;50.280;19.026;2023-04-09T04:29:24;98968.91;;;7.36;100.00
40920;BME280;26652;50.280;19.026;2023-04-09T04:31:35;98956.50;;;6.98;100.00
40920;BME280;26652;50.280;19.026;2023-04-09T04:33:53;98955.72;;;6.97;100.00
40920;BME280;26652;50.280;19.026;2023-04-09T04:36:10;98960.56;;;6.81;100.00
40920;BME280;26652;50.280;19.026;2023-04-09T04:38:22;98964.87;;;6.71;100.00
40920;BME280;26652;50.280;19.026;2023-04-09T04:40:35;98965.41;;;6.74;100.00
40920;BME280;26652;50.280;19.026;2023-04-09T04:42:55;98973.28;;;6.99;100.00
40920;BME280;26652;50.280;19.026;2023-04-09T04:45:06;98962.75;;;7.21;100.00
40920;BME280;26652;50.280;19.026;2023-04-09T04:47:22;98965.97;;;6.96;100.00
40920;BME280;26652;50.280;19.026;2023-04-09T04:49:39;98953.38;;;6.86;100.00
40920;BME280;26652;50.280;19.026;2023-04-09T04:51:56;98955.22;;;6.84;100.00
40920;BME280;26652;50.280;19.026;2023-04-09T04:54:08;98966.72;;;7.06;100.00
40920;BME280;26652;50.280;19.026;2023-04-09T04:56:22;98963.00;;;7.28;100.00
40920;BME280;26652;50.280;19.026;2023-04-09T04:58:30;98953.62;;;7.10;100.00
40920;BME280;26652;50.280;19.026;2023-04-09T05:00:48;98965.78;;;7.07;100.00
40920;BME280;26652;50.280;19.026;2023-04-09T05:03:06;98956.09;;;7.20;100.00
40920;BME280;26652;50.280;19.026;2023-04-09T05:05:37;98963.47;;;7.13;100.00
40920;BME280;26652;50.280;19.026;2023-04-09T05:07:50;98973.97;;;7.36;100.00
40920;BME280;26652;50.280;19.026;2023-04-09T05:10:08;98972.16;;;7.29;100.00
40920;BME280;26652;50.280;19.026;2023-04-09T05:12:14;98960.75;;;7.25;100.00
40920;BME280;26652;50.280;19.026;2023-04-09T05:14:28;98953.56;;;7.20;100.00
40920;BME280;26652;50.280;19.026;2023-04-09T05:16:45;98969.78;;;7.27;100.00
40920;BME280;26652;50.280;19.026;2023-04-09T05:18:57;98983.53;;;7.25;100.00
40920;BME280;26652;50.280;19.026;2023-04-09T05:21:13;98982.13;;;7.30;100.00
40920;BME280;26652;50.280;19.026;2023-04-09T05:23:27;98978.47;;;7.42;100.00
40920;BME280;26652;50.280;19.026;2023-04-09T05:25:42;98984.91;;;7.54;100.00
40920;BME280;26652;50.280;19.026;2023-04-09T05:27:54;98982.31;;;7.64;100.00
40920;BME280;26652;50.280;19.026;2023-04-09T05:30:06;98988.59;;;7.78;100.00
40920;BME280;26652;50.280;19.026;2023-04-09T05:32:16;98977.53;;;7.79;100.00
40920;BME280;26652;50.280;19.026;2023-04-09T05:34:24;98978.09;;;7.91;100.00
40920;BME280;26652;50.280;19.026;2023-04-09T05:36:44;98982.66;;;7.87;100.00
40920;BME280;26652;50.280;19.026;2023-04-09T05:38:59;98984.47;;;7.95;100.00
40920;BME280;26652;50.280;19.026;2023-04-09T05:41:29;98988.25;;;7.73;100.00
40920;BME280;26652;50.280;19.026;2023-04-09T05:43:44;99000.63;;;7.76;100.00
40920;BME280;26652;50.280;19.026;2023-04-09T05:46:08;98998.66;;;7.87;100.00
40920;BME280;26652;50.280;19.026;2023-04-09T05:48:20;98999.88;;;8.01;100.00
40920;BME280;26652;50.280;19.026;2023-04-09T05:50:32;98995.03;;;8.08;100.00
40920;BME280;26652;50.280;19.026;2023-04-09T05:52:40;98994.00;;;8.01;100.00
40920;BME280;26652;50.280;19.026;2023-04-09T05:54:53;99002.06;;;7.96;100.00
40920;BME280;26652;50.280;19.026;2023-04-09T05:57:01;98997.34;;;8.01;100.00
40920;BME280;26652;50.280;19.026;2023-04-09T05:59:16;99003.00;;;7.77;100.00
40920;BME280;26652;50.280;19.026;2023-04-09T06:01:30;98998.94;;;7.84;100.00
40920;BME280;26652;50.280;19.026;2023-04-09T06:03:55;99009.97;;;7.75;100.00
40920;BME280;26652;50.280;19.026;2023-04-09T06:06:04;99003.50;;;7.99;100.00
40920;BME280;26652;50.280;19.026;2023-04-09T06:08:14;99002.13;;;8.04;100.00
40920;BME280;26652;50.280;19.026;2023-04-09T06:10:22;99006.97;;;8.15;100.00
40920;BME280;26652;50.280;19.026;2023-04-09T06:12:34;99004.88;;;8.11;100.00
40920;BME280;26652;50.280;19.026;2023-04-09T06:14:46;99002.69;;;8.16;100.00
40920;BME280;26652;50.280;19.026;2023-04-09T06:16:58;99005.00;;;8.09;100.00
40920;BME280;26652;50.280;19.026;2023-04-09T06:19:06;99009.06;;;8.20;100.00
40920;BME280;26652;50.280;19.026;2023-04-09T06:21:37;99005.66;;;8.11;100.00
40920;BME280;26652;50.280;19.026;2023-04-09T06:23:55;99013.78;;;8.15;100.00
40920;BME280;26652;50.280;19.026;2023-04-09T06:26:09;99016.28;;;8.33;100.00
40920;BME280;26652;50.280;19.026;2023-04-09T06:28:17;99019.81;;;8.40;100.00
40920;BME280;26652;50.280;19.026;2023-04-09T06:30:44;99018.91;;;8.49;99.92
40920;BME280;26652;50.280;19.026;2023-04-09T06:32:52;99025.66;;;8.14;100.00
40920;BME280;26652;50.280;19.026;2023-04-09T06:35:07;99021.47;;;8.05;100.00
40920;BME280;26652;50.280;19.026;2023-04-09T06:37:13;99025.09;;;8.03;100.00
40920;BME280;26652;50.280;19.026;2023-04-09T06:39:27;99021.47;;;8.05;100.00
40920;BME280;26652;50.280;19.026;2023-04-09T06:41:36;99007.34;;;8.03;100.00
40920;BME280;26652;50.280;19.026;2023-04-09T06:43:47;99025.78;;;8.31;100.00
40920;BME280;26652;50.280;19.026;2023-04-09T06:45:57;99028.91;;;8.25;99.57
40920;BME280;26652;50.280;19.026;2023-04-09T06:48:17;99032.44;;;8.32;98.38
40920;BME280;26652;50.280;19.026;2023-04-09T06:50:42;99035.63;;;8.34;97.00
40920;BME280;26652;50.280;19.026;2023-04-09T06:52:54;99028.81;;;8.34;97.38
40920;BME280;26652;50.280;19.026;2023-04-09T06:55:11;99033.91;;;8.16;98.65
40920;BME280;26652;50.280;19.026;2023-04-09T06:57:33;99036.31;;;8.18;100.00
40920;BME280;26652;50.280;19.026;2023-04-09T06:59:50;99036.12;;;8.37;100.00
40920;BME280;26652;50.280;19.026;2023-04-09T07:02:05;99037.06;;;8.36;99.84
40920;BME280;26652;50.280;19.026;2023-04-09T07:04:14;99034.50;;;8.54;98.73
40920;BME280;26652;50.280;19.026;2023-04-09T07:06:27;99039.63;;;8.18;99.26
40920;BME280;26652;50.280;19.026;2023-04-09T07:08:40;99039.59;;;8.36;100.00
40920;BME280;26652;50.280;19.026;2023-04-09T07:11:00;99035.88;;;8.48;98.73
40920;BME280;26652;50.280;19.026;2023-04-09T07:13:08;99038.38;;;8.40;99.32
40920;BME280;26652;50.280;19.026;2023-04-09T07:15:39;99042.44;;;8.59;99.48
40920;BME280;26652;50.280;19.026;2023-04-09T07:17:56;99047.16;;;8.80;98.42
40920;BME280;26652;50.280;19.026;2023-04-09T07:20:10;99044.47;;;8.81;97.82
40920;BME280;26652;50.280;19.026;2023-04-09T07:22:20;99024.22;;;8.90;97.37
40920;BME280;26652;50.280;19.026;2023-04-09T07:24:36;99049.69;;;9.06;96.14
40920;BME280;26652;50.280;19.026;2023-04-09T07:26:55;99042.84;;;9.06;95.09
40920;BME280;26652;50.280;19.026;2023-04-09T07:29:11;99049.56;;;8.81;96.37
40920;BME280;26652;50.280;19.026;2023-04-09T07:31:19;99045.03;;;8.67;97.58
40920;BME280;26652;50.280;19.026;2023-04-09T07:33:41;99048.06;;;8.71;98.26
40920;BME280;26652;50.280;19.026;2023-04-09T07:35:50;99049.69;;;9.06;98.74
40920;BME280;26652;50.280;19.026;2023-04-09T07:38:04;99049.72;;;9.14;97.73
40920;BME280;26652;50.280;19.026;2023-04-09T07:40:13;99049.25;;;9.18;95.89
40920;BME280;26652;50.280;19.026;2023-04-09T07:42:31;99046.56;;;9.20;94.81
40920;BME280;26652;50.280;19.026;2023-04-09T07:44:40;99050.13;;;9.35;95.16
40920;BME280;26652;50.280;19.026;2023-04-09T07:46:53;99045.09;;;9.68;94.22
40920;BME280;26652;50.280;19.026;2023-04-09T07:49:01;99035.88;;;9.75;95.71
40920;BME280;26652;50.280;19.026;2023-04-09T07:51:15;99037.78;;;9.73;96.05
40920;BME280;26652;50.280;19.026;2023-04-09T07:53:24;99042.88;;;9.81;94.37
40920;BME280;26652;50.280;19.026;2023-04-09T07:55:49;99048.91;;;9.80;93.92
40920;BME280;26652;50.280;19.026;2023-04-09T07:57:54;99042.09;;;9.80;93.85
40920;BME280;26652;50.280;19.026;2023-04-09T08:00:07;99047.47;;;9.69;92.83
40920;BME280;26652;50.280;19.026;2023-04-09T08:02:13;99050.19;;;9.76;92.24
40920;BME280;26652;50.280;19.026;2023-04-09T08:04:30;99051.00;;;9.84;92.38
40920;BME280;26652;50.280;19.026;2023-04-09T08:06:47;99050.66;;;9.71;91.81
40920;BME280;26652;50.280;19.026;2023-04-09T08:09:16;99051.94;;;9.92;93.92
40920;BME280;26652;50.280;19.026;2023-04-09T08:11:22;99040.34;;;9.97;93.57
40920;BME280;26652;50.280;19.026;2023-04-09T08:13:51;99053.88;;;10.06;92.23
40920;BME280;26652;50.280;19.026;2023-04-09T08:16:03;99055.94;;;10.10;89.81
40920;BME280;26652;50.280;19.026;2023-04-09T08:18:27;99060.72;;;10.05;90.25
40920;BME280;26652;50.280;19.026;2023-04-09T08:20:35;99055.59;;;9.89;90.95
40920;BME280;26652;50.280;19.026;2023-04-09T08:22:53;99065.47;;;9.92;92.67
40920;BME280;26652;50.280;19.026;2023-04-09T08:25:01;99062.25;;;9.74;92.65
40920;BME280;26652;50.280;19.026;2023-04-09T08:27:18;99077.22;;;9.93;91.17
40920;BME280;26652;50.280;19.026;2023-04-09T08:29:25;99059.88;;;9.80;91.00
40920;BME280;26652;50.280;19.026;2023-04-09T08:31:37;99061.00;;;9.94;91.30
40920;BME280;26652;50.280;19.026;2023-04-09T08:33:45;99078.50;;;9.97;92.90
40920;BME280;26652;50.280;19.026;2023-04-09T08:36:01;99069.28;;;10.04;94.38
40920;BME280;26652;50.280;19.026;2023-04-09T08:38:19;99074.41;;;10.21;93.32
40920;BME280;26652;50.280;19.026;2023-04-09T08:40:34;99079.66;;;10.27;92.68
40920;BME280;26652;50.280;19.026;2023-04-09T08:42:43;99074.69;;;10.09;94.34
40920;BME280;26652;50.280;19.026;2023-04-09T08:44:57;99080.63;;;10.26;92.19
40920;BME280;26652;50.280;19.026;2023-04-09T08:47:08;99076.47;;;10.25;93.61
40920;BME280;26652;50.280;19.026;2023-04-09T08:49:21;99071.72;;;10.22;91.73
40920;BME280;26652;50.280;19.026;2023-04-09T08:51:33;99074.38;;;10.45;91.79
40920;BME280;26652;50.280;19.026;2023-04-09T08:53:59;99077.38;;;10.57;91.43
40920;BME280;26652;50.280;19.026;2023-04-09T08:56:06;99081.22;;;10.44;91.00
40920;BME280;26652;50.280;19.026;2023-04-09T08:58:25;99070.75;;;10.31;90.42
40920;BME280;26652;50.280;19.026;2023-04-09T09:00:34;99080.25;;;10.54;89.01
40920;BME280;26652;50.280;19.026;2023-04-09T09:03:09;99074.53;;;10.60;87.75
40920;BME280;26652;50.280;19.026;2023-04-09T09:05:40;99081.84;;;10.55;89.63
40920;BME280;26652;50.280;19.026;2023-04-09T09:07:55;99079.47;;;10.61;88.63
40920;BME280;26652;50.280;19.026;2023-04-09T09:10:19;99077.69;;;10.70;86.75
40920;BME280;26652;50.280;19.026;2023-04-09T09:12:38;99071.97;;;10.68;88.93
40920;BME280;26652;50.280;19.026;2023-04-09T09:14:53;99077.09;;;10.52;90.70
40920;BME280;26652;50.280;19.026;2023-04-09T09:17:13;99085.34;;;10.62;89.50
40920;BME280;26652;50.280;19.026;2023-04-09T09:19:31;99083.44;;;10.64;88.74
40920;BME280;26652;50.280;19.026;2023-04-09T09:21:41;99080.72;;;10.65;88.05
40920;BME280;26652;50.280;19.026;2023-04-09T09:23:54;99080.53;;;10.75;89.50
40920;BME280;26652;50.280;19.026;2023-04-09T09:26:26;99080.41;;;10.68;85.67
40920;BME280;26652;50.280;19.026;2023-04-09T09:28:35;99084.06;;;10.58;87.22
40920;BME280;26652;50.280;19.026;2023-04-09T09:30:47;99078.37;;;10.39;90.60
40920;BME280;26652;50.280;19.026;2023-04-09T09:33:10;99078.66;;;10.53;89.57
40920;BME280;26652;50.280;19.026;2023-04-09T09:35:23;99080.25;;;10.45;89.97
40920;BME280;26652;50.280;19.026;2023-04-09T09:37:32;99085.34;;;10.62;87.62
40920;BME280;26652;50.280;19.026;2023-04-09T09:39:43;99084.22;;;10.56;88.07
40920;BME280;26652;50.280;19.026;2023-04-09T09:42:07;99088.06;;;10.44;87.00
40920;BME280;26652;50.280;19.026;2023-04-09T09:44:33;99084.69;;;10.68;86.32
40920;BME280;26652;50.280;19.026;2023-04-09T09:46:46;99083.53;;;10.87;84.65
40920;BME280;26652;50.280;19.026;2023-04-09T09:48:59;99090.22;;;10.88;86.17
40920;BME280;26652;50.280;19.026;2023-04-09T09:51:12;99081.03;;;10.78;87.99
40920;BME280;26652;50.280;19.026;2023-04-09T09:53:22;99077.97;;;10.91;86.40
40920;BME280;26652;50.280;19.026;2023-04-09T09:55:33;99081.13;;;11.01;86.50
40920;BME280;26652;50.280;19.026;2023-04-09T09:57:50;99082.78;;;10.78;88.20
40920;BME280;26652;50.280;19.026;2023-04-09T10:00:01;99082.78;;;10.62;88.61
40920;BME280;26652;50.280;19.026;2023-04-09T10:02:18;99079.44;;;10.77;88.33
40920;BME280;26652;50.280;19.026;2023-04-09T10:04:27;99079.22;;;10.95;87.05
40920;BME280;26652;50.280;19.026;2023-04-09T10:06:43;99079.66;;;11.07;84.93
40920;BME280;26652;50.280;19.026;2023-04-09T10:08:50;99083.78;;;11.16;83.93
40920;BME280;26652;50.280;19.026;2023-04-09T10:11:04;99074.84;;;11.20;83.56
40920;BME280;26652;50.280;19.026;2023-04-09T10:13:15;99073.72;;;11.23;81.42
40920;BME280;26652;50.280;19.026;2023-04-09T10:15:29;99078.81;;;11.23;80.30
40920;BME280;26652;50.280;19.026;2023-04-09T10:17:55;99077.53;;;11.27;81.43
40920;BME280;26652;50.280;19.026;2023-04-09T10:20:21;99071.50;;;11.20;81.99
40920;BME280;26652;50.280;19.026;2023-04-09T10:22:29;99082.16;;;11.23;82.44
40920;BME280;26652;50.280;19.026;2023-04-09T10:24:42;99079.41;;;11.33;80.47
40920;BME280;26652;50.280;19.026;2023-04-09T10:26:48;99072.00;;;11.46;80.49
40920;BME280;26652;50.280;19.026;2023-04-09T10:29:10;99067.78;;;11.61;78.59
40920;BME280;26652;50.280;19.026;2023-04-09T10:31:20;99069.91;;;11.50;79.19
40920;BME280;26652;50.280;19.026;2023-04-09T10:33:33;99068.31;;;11.48;79.56
40920;BME280;26652;50.280;19.026;2023-04-09T10:35:45;99066.31;;;11.67;78.90
40920;BME280;26652;50.280;19.026;2023-04-09T10:37:56;99065.97;;;11.70;77.79
40920;BME280;26652;50.280;19.026;2023-04-09T10:40:03;99065.31;;;11.76;78.95
40920;BME280;26652;50.280;19.026;2023-04-09T10:42:31;99058.03;;;11.65;79.00
40920;BME280;26652;50.280;19.026;2023-04-09T10:44:40;99061.44;;;11.57;80.07
40920;BME280;26652;50.280;19.026;2023-04-09T10:46:55;99060.62;;;11.57;80.70
40920;BME280;26652;50.280;19.026;2023-04-09T10:49:19;99055.66;;;11.63;79.80
40920;BME280;26652;50.280;19.026;2023-04-09T10:51:39;99055.94;;;11.68;80.09
40920;BME280;26652;50.280;19.026;2023-04-09T10:53:45;99056.56;;;11.78;80.11
40920;BME280;26652;50.280;19.026;2023-04-09T10:56:16;99058.97;;;11.72;79.24
40920;BME280;26652;50.280;19.026;2023-04-09T10:58:30;99061.00;;;11.76;79.28
40920;BME280;26652;50.280;19.026;2023-04-09T11:00:44;99053.44;;;11.91;78.80
40920;BME280;26652;50.280;19.026;2023-04-09T11:03:22;99048.50;;;11.90;80.78
40920;BME280;26652;50.280;19.026;2023-04-09T11:05:37;99049.00;;;12.08;80.02
40920;BME280;26652;50.280;19.026;2023-04-09T11:07:56;99049.03;;;11.85;77.96
40920;BME280;26652;50.280;19.026;2023-04-09T11:10:16;99052.41;;;12.00;76.74
40920;BME280;26652;50.280;19.026;2023-04-09T11:12:22;99055.22;;;12.28;75.53
40920;BME280;26652;50.280;19.026;2023-04-09T11:14:38;99064.75;;;12.49;73.01
40920;BME280;26652;50.280;19.026;2023-04-09T11:16:49;99060.28;;;12.66;72.30
40920;BME280;26652;50.280;19.026;2023-04-09T11:19:01;99061.53;;;12.85;72.95
40920;BME280;26652;50.280;19.026;2023-04-09T11:21:10;99055.72;;;12.91;74.45
40920;BME280;26652;50.280;19.026;2023-04-09T11:23:25;99062.31;;;12.70;74.41
40920;BME280;26652;50.280;19.026;2023-04-09T11:25:32;99057.38;;;12.69;76.78
40920;BME280;26652;50.280;19.026;2023-04-09T11:27:44;99060.19;;;12.74;75.33
40920;BME280;26652;50.280;19.026;2023-04-09T11:29:59;99055.78;;;12.68;74.27
40920;BME280;26652;50.280;19.026;2023-04-09T11:32:16;99053.25;;;12.83;73.50
40920;BME280;26652;50.280;19.026;2023-04-09T11:34:32;99058.09;;;13.22;75.18
40920;BME280;26652;50.280;19.026;2023-04-09T11:36:43;99051.19;;;13.37;73.08
40920;BME280;26652;50.280;19.026;2023-04-09T11:39:05;99047.66;;;13.38;72.75
40920;BME280;26652;50.280;19.026;2023-04-09T11:41:37;99057.06;;;13.16;70.93
40920;BME280;26652;50.280;19.026;2023-04-09T11:43:52;99053.41;;;12.66;73.17
40920;BME280;26652;50.280;19.026;2023-04-09T11:46:12;99046.44;;;12.60;73.28
40920;BME280;26652;50.280;19.026;2023-04-09T11:48:30;99052.53;;;12.89;73.76
40920;BME280;26652;50.280;19.026;2023-04-09T11:50:45;99051.94;;;13.16;73.68